Terminal Aerodrome Forecast
Issued by NWS

Home | Current Version | Previous Version | Text Only | Print | Product List | Glossary On
Versions: 1 2 3 4 5 6 7 8 9 10 11 12 13 14 15
000
FTUS43 KILX 010700 AAA
TAFBMI
TAF AMD
KBMI 010703Z 0107/0206 15005KT 3SM -SN BR OVC015
      TEMPO 0107/0110 1SM -SN BR BKN006
     FM011500 VRB03KT 3SM -SN BR OVC020
     FM012000 29006KT P6SM OVC020
     FM020300 29008KT P6SM SCT020 BKN200=

USA.gov is the U.S. government's official web portal to all federal, state and local government web resources and services.